Elbella — 9HA2358 — position and weather

sailwx.info

Track history (hours):
 
Tides and Currents Weather Stations Pressure Air Temp Water Temp Dewpoint Dewpoint Depression Visibility Wind Speed Wind Dir Waves Ship Positions

Elbella

Last reported at 2014-Sep-01 04:34 UTC. Time now 2014-Sep-02 21:39 UTC.
Position N 36°08' E 025°48'.

Length 176 m; draft 9.2 m.

Type: Ship. MMSI: 248422000.

Date/timePositionNaut miles runAvg speedWind from/ knotsBaromVisibWave heightAir tempDewpointWater temp
2014-Sep-01 04:34N 36°08' E 025°48'1716.9
2014-Sep-01 03:34N 36°08' E 025°27'1616.3
2014-Sep-01 02:34N 36°09' E 025°07'1716.8
2014-Sep-01 01:34N 36°11' E 024°46'1717.0
2014-Sep-01 00:34N 36°13' E 024°25'1717.4
2014-Aug-31 23:34N 36°16' E 024°04'  
2014-Aug-29 08:13N 35°49' E 014°33'0 0.0
2014-Aug-29 07:24N 35°49' E 014°33'0 0.0
2014-Aug-29 06:33N 35°49' E 014°33'0 0.0
2014-Aug-29 05:29N 35°49' E 014°33'0 0.0
2014-Aug-29 04:25N 35°49' E 014°33'0 0.0
2014-Aug-29 03:33N 35°49' E 014°33'0 0.0
2014-Aug-29 02:33N 35°49' E 014°33'0 0.0
2014-Aug-29 01:22N 35°49' E 014°33'0 0.0
2014-Aug-29 00:32N 35°49' E 014°33'0 0.0
2014-Aug-28 23:33N 35°49' E 014°33'0 0.0
2014-Aug-28 22:32N 35°49' E 014°33'0 0.0
2014-Aug-28 21:33N 35°49' E 014°32'0 0.0
2014-Aug-28 19:16N 35°49' E 014°33'0 0.0
2014-Aug-28 18:12N 35°49' E 014°32'0 0.0
2014-Aug-28 17:21N 35°49' E 014°33'0 0.0
2014-Aug-28 16:31N 35°49' E 014°33'0 0.0
2014-Aug-28 15:33N 35°49' E 014°33'0 0.0
2014-Aug-28 14:33N 35°49' E 014°32'0 0.0
2014-Aug-28 13:33N 35°49' E 014°33'0 0.0
2014-Aug-28 12:33N 35°49' E 014°33'0 0.0
2014-Aug-28 11:33N 35°49' E 014°33'0 0.0
2014-Aug-28 10:33N 35°49' E 014°33'0 0.0
2014-Aug-28 09:33N 35°49' E 014°33'0 0.0
2014-Aug-28 08:33N 35°49' E 014°33'0 0.0
2014-Aug-28 07:33N 35°49' E 014°33'0 0.0
2014-Aug-28 06:32N 35°49' E 014°33'0 0.0
2014-Aug-28 05:33N 35°49' E 014°33'0 0.0
2014-Aug-28 04:32N 35°49' E 014°33'0 0.0
2014-Aug-28 03:33N 35°49' E 014°33'0 0.0
2014-Aug-28 02:33N 35°49' E 014°33'1 0.5
2014-Aug-28 01:33N 35°49' E 014°33'4 4.5
2014-Aug-28 00:34N 35°50' E 014°38'1 0.9
2014-Aug-27 23:33N 35°51' E 014°39'0 0.0
2014-Aug-27 22:33N 35°51' E 014°39'0 0.2
2014-Aug-27 21:33N 35°51' E 014°39'0 0.0
2014-Aug-27 20:33N 35°51' E 014°39'0 0.0
2014-Aug-27 19:33N 35°51' E 014°39'0 0.0
2014-Aug-27 18:33N 35°51' E 014°39'0 0.0
2014-Aug-27 17:33N 35°51' E 014°39'0 0.0
2014-Aug-27 16:33N 35°51' E 014°39'0 0.0
2014-Aug-27 15:33N 35°51' E 014°39'0 0.0
2014-Aug-27 14:33N 35°51' E 014°39'0 0.0
2014-Aug-27 13:33N 35°51' E 014°39'1 0.6
2014-Aug-27 12:33N 35°51' E 014°39'1110.7
2014-Aug-27 11:33N 35°41' E 014°44'1111.2
2014-Aug-27 10:33N 35°30' E 014°47'1111.1
2014-Aug-27 09:33N 35°19' E 014°48'1111.3
2014-Aug-27 08:33N 35°08' E 014°51'1111.4
2014-Aug-27 07:33N 34°56' E 014°53'1211.6
2014-Aug-27 06:33N 34°45' E 014°55'1211.7
2014-Aug-27 05:33N 34°33' E 014°57'1211.5
2014-Aug-27 04:33N 34°22' E 014°60'1211.8
2014-Aug-27 03:33N 34°10' E 015°02'1211.7
2014-Aug-27 02:33N 33°59' E 015°04'2311.6
2014-Aug-27 00:33N 33°36' E 015°09'1211.6
2014-Aug-26 23:32N 33°24' E 015°11'1111.5
2014-Aug-26 22:33N 33°13' E 015°13'1211.7
2014-Aug-26 21:33N 33°02' E 015°16'1211.9
2014-Aug-26 20:33N 32°50' E 015°16'1211.9
2014-Aug-26 19:33N 32°38' E 015°16'1211.8
2014-Aug-26 18:33N 32°26' E 015°16'5 4.1
2014-Aug-26 17:25N 32°22' E 015°13'0 0.0
2014-Aug-26 16:31N 32°22' E 015°13'0 0.0
2014-Aug-26 15:31N 32°22' E 015°13'0 0.0
2014-Aug-26 14:31N 32°22' E 015°13'0 0.0
2014-Aug-26 13:31N 32°22' E 015°13'0 0.0
2014-Aug-26 12:31N 32°22' E 015°13'0 0.0
2014-Aug-26 11:31N 32°22' E 015°13'0 0.0
2014-Aug-26 10:22N 32°22' E 015°13'0 0.0
2014-Aug-26 02:16N 32°22' E 015°13'0 0.0
2014-Aug-26 00:13N 32°22' E 015°13'0 0.0
2014-Aug-25 23:07N 32°22' E 015°13'0 0.0
2014-Aug-25 20:07N 32°22' E 015°13'0 0.0
2014-Aug-25 19:28N 32°22' E 015°13'0 0.0
2014-Aug-25 18:04N 32°22' E 015°13'0 0.0
2014-Aug-25 16:10N 32°22' E 015°13'0 0.0
2014-Aug-25 15:31N 32°22' E 015°13'0 0.0
2014-Aug-25 14:25N 32°22' E 015°13'0 0.0
2014-Aug-25 13:31N 32°22' E 015°13'0 0.0
2014-Aug-25 12:16N 32°22' E 015°13'0 0.0
2014-Aug-25 11:31N 32°22' E 015°13'0 0.0
2014-Aug-25 10:28N 32°22' E 015°13'0 0.0
2014-Aug-25 06:28N 32°22' E 015°13'0 0.0
2014-Aug-25 05:31N 32°22' E 015°13'0 0.0
2014-Aug-25 04:25N 32°22' E 015°13'0 0.0
2014-Aug-25 03:31N 32°22' E 015°13'0 0.0
2014-Aug-25 02:31N 32°22' E 015°13'0 0.0
2014-Aug-25 00:20N 32°22' E 015°13'0 0.0
2014-Aug-24 23:30N 32°22' E 015°13'0 0.0
2014-Aug-24 22:20N 32°22' E 015°13'0 0.0
2014-Aug-24 21:25N 32°22' E 015°13'0 0.0
2014-Aug-24 20:33N 32°22' E 015°13'0 0.0
2014-Aug-24 19:33N 32°22' E 015°13'0 0.0
2014-Aug-24 18:33N 32°22' E 015°13'0 0.0
2014-Aug-24 17:33N 32°22' E 015°13'0 0.0
2014-Aug-24 16:33N 32°22' E 015°13'4 4.1
2014-Aug-24 15:33N 32°25' E 015°16'9 9.1
2014-Aug-24 14:33N 32°34' E 015°18'1211.7
2014-Aug-24 13:33N 32°36' E 015°32'1211.9
2014-Aug-24 12:33N 32°37' E 015°46'1211.7
2014-Aug-24 11:33N 32°38' E 016°00'1211.9
2014-Aug-24 10:33N 32°39' E 016°14'1211.8
2014-Aug-24 09:33N 32°41' E 016°28'1211.9
2014-Aug-24 08:33N 32°42' E 016°42'2911.7
2014-Aug-24 06:07N 32°45' E 017°16'811.6
2014-Aug-24 05:25N 32°46' E 017°25'1011.6
2014-Aug-24 04:33N 32°47' E 017°37'3811.6
2014-Aug-24 01:17N 32°51' E 018°22'42311.5
2014-Aug-22 12:34N 32°08' E 026°41'1611.9
2014-Aug-22 11:10N 32°03' E 026°60'711.7
2014-Aug-22 10:33N 32°01' E 027°08'1611.8
2014-Aug-22 09:12N 31°56' E 027°26'  
Track history (hours):
 
Tides and Currents Weather Stations Pressure Air Temp Water Temp Dewpoint Dewpoint Depression Visibility Wind Speed Wind Dir Waves Ship Positions

Elbella

Last reported at 2014-Sep-01 04:34 UTC. Time now 2014-Sep-02 21:39 UTC.
Position N 36°08' E 025°48'.

Length 176 m; draft 9.2 m.

Type: Ship. MMSI: 248422000.

Date/timePositionNaut miles runAvg speedWind from/ knotsBaromVisibWave heightAir tempDewpointWater temp
2014-Sep-01 04:34N 36°08' E 025°48'1716.9
2014-Sep-01 03:34N 36°08' E 025°27'1616.3
2014-Sep-01 02:34N 36°09' E 025°07'1716.8
2014-Sep-01 01:34N 36°11' E 024°46'1717.0
2014-Sep-01 00:34N 36°13' E 024°25'1717.4
2014-Aug-31 23:34N 36°16' E 024°04'  
2014-Aug-29 08:13N 35°49' E 014°33'0 0.0
2014-Aug-29 07:24N 35°49' E 014°33'0 0.0
2014-Aug-29 06:33N 35°49' E 014°33'0 0.0
2014-Aug-29 05:29N 35°49' E 014°33'0 0.0
2014-Aug-29 04:25N 35°49' E 014°33'0 0.0
2014-Aug-29 03:33N 35°49' E 014°33'0 0.0
2014-Aug-29 02:33N 35°49' E 014°33'0 0.0
2014-Aug-29 01:22N 35°49' E 014°33'0 0.0
2014-Aug-29 00:32N 35°49' E 014°33'0 0.0
2014-Aug-28 23:33N 35°49' E 014°33'0 0.0
2014-Aug-28 22:32N 35°49' E 014°33'0 0.0
2014-Aug-28 21:33N 35°49' E 014°32'0 0.0
2014-Aug-28 19:16N 35°49' E 014°33'0 0.0
2014-Aug-28 18:12N 35°49' E 014°32'0 0.0
2014-Aug-28 17:21N 35°49' E 014°33'0 0.0
2014-Aug-28 16:31N 35°49' E 014°33'0 0.0
2014-Aug-28 15:33N 35°49' E 014°33'0 0.0
2014-Aug-28 14:33N 35°49' E 014°32'0 0.0
2014-Aug-28 13:33N 35°49' E 014°33'0 0.0
2014-Aug-28 12:33N 35°49' E 014°33'0 0.0
2014-Aug-28 11:33N 35°49' E 014°33'0 0.0
2014-Aug-28 10:33N 35°49' E 014°33'0 0.0
2014-Aug-28 09:33N 35°49' E 014°33'0 0.0
2014-Aug-28 08:33N 35°49' E 014°33'0 0.0
2014-Aug-28 07:33N 35°49' E 014°33'0 0.0
2014-Aug-28 06:32N 35°49' E 014°33'0 0.0
2014-Aug-28 05:33N 35°49' E 014°33'0 0.0
2014-Aug-28 04:32N 35°49' E 014°33'0 0.0
2014-Aug-28 03:33N 35°49' E 014°33'0 0.0
2014-Aug-28 02:33N 35°49' E 014°33'1 0.5
2014-Aug-28 01:33N 35°49' E 014°33'4 4.5
2014-Aug-28 00:34N 35°50' E 014°38'1 0.9
2014-Aug-27 23:33N 35°51' E 014°39'0 0.0
2014-Aug-27 22:33N 35°51' E 014°39'0 0.2
2014-Aug-27 21:33N 35°51' E 014°39'0 0.0
2014-Aug-27 20:33N 35°51' E 014°39'0 0.0
2014-Aug-27 19:33N 35°51' E 014°39'0 0.0
2014-Aug-27 18:33N 35°51' E 014°39'0 0.0
2014-Aug-27 17:33N 35°51' E 014°39'0 0.0
2014-Aug-27 16:33N 35°51' E 014°39'0 0.0
2014-Aug-27 15:33N 35°51' E 014°39'0 0.0
2014-Aug-27 14:33N 35°51' E 014°39'0 0.0
2014-Aug-27 13:33N 35°51' E 014°39'1 0.6
2014-Aug-27 12:33N 35°51' E 014°39'1110.7
2014-Aug-27 11:33N 35°41' E 014°44'1111.2
2014-Aug-27 10:33N 35°30' E 014°47'1111.1
2014-Aug-27 09:33N 35°19' E 014°48'1111.3
2014-Aug-27 08:33N 35°08' E 014°51'1111.4
2014-Aug-27 07:33N 34°56' E 014°53'1211.6
2014-Aug-27 06:33N 34°45' E 014°55'1211.7
2014-Aug-27 05:33N 34°33' E 014°57'1211.5
2014-Aug-27 04:33N 34°22' E 014°60'1211.8
2014-Aug-27 03:33N 34°10' E 015°02'1211.7
2014-Aug-27 02:33N 33°59' E 015°04'2311.6
2014-Aug-27 00:33N 33°36' E 015°09'1211.6
2014-Aug-26 23:32N 33°24' E 015°11'1111.5
2014-Aug-26 22:33N 33°13' E 015°13'1211.7
2014-Aug-26 21:33N 33°02' E 015°16'1211.9
2014-Aug-26 20:33N 32°50' E 015°16'1211.9
2014-Aug-26 19:33N 32°38' E 015°16'1211.8
2014-Aug-26 18:33N 32°26' E 015°16'5 4.1
2014-Aug-26 17:25N 32°22' E 015°13'0 0.0
2014-Aug-26 16:31N 32°22' E 015°13'0 0.0
2014-Aug-26 15:31N 32°22' E 015°13'0 0.0
2014-Aug-26 14:31N 32°22' E 015°13'0 0.0
2014-Aug-26 13:31N 32°22' E 015°13'0 0.0
2014-Aug-26 12:31N 32°22' E 015°13'0 0.0
2014-Aug-26 11:31N 32°22' E 015°13'0 0.0
2014-Aug-26 10:22N 32°22' E 015°13'0 0.0
2014-Aug-26 02:16N 32°22' E 015°13'0 0.0
2014-Aug-26 00:13N 32°22' E 015°13'0 0.0
2014-Aug-25 23:07N 32°22' E 015°13'0 0.0
2014-Aug-25 20:07N 32°22' E 015°13'0 0.0
2014-Aug-25 19:28N 32°22' E 015°13'0 0.0
2014-Aug-25 18:04N 32°22' E 015°13'0 0.0
2014-Aug-25 16:10N 32°22' E 015°13'0 0.0
2014-Aug-25 15:31N 32°22' E 015°13'0 0.0
2014-Aug-25 14:25N 32°22' E 015°13'0 0.0
2014-Aug-25 13:31N 32°22' E 015°13'0 0.0
2014-Aug-25 12:16N 32°22' E 015°13'0 0.0
2014-Aug-25 11:31N 32°22' E 015°13'0 0.0
2014-Aug-25 10:28N 32°22' E 015°13'0 0.0
2014-Aug-25 06:28N 32°22' E 015°13'0 0.0
2014-Aug-25 05:31N 32°22' E 015°13'0 0.0
2014-Aug-25 04:25N 32°22' E 015°13'0 0.0
2014-Aug-25 03:31N 32°22' E 015°13'0 0.0
2014-Aug-25 02:31N 32°22' E 015°13'0 0.0
2014-Aug-25 00:20N 32°22' E 015°13'0 0.0
2014-Aug-24 23:30N 32°22' E 015°13'0 0.0
2014-Aug-24 22:20N 32°22' E 015°13'0 0.0
2014-Aug-24 21:25N 32°22' E 015°13'0 0.0
2014-Aug-24 20:33N 32°22' E 015°13'0 0.0
2014-Aug-24 19:33N 32°22' E 015°13'0 0.0
2014-Aug-24 18:33N 32°22' E 015°13'0 0.0
2014-Aug-24 17:33N 32°22' E 015°13'0 0.0
2014-Aug-24 16:33N 32°22' E 015°13'4 4.1
2014-Aug-24 15:33N 32°25' E 015°16'9 9.1
2014-Aug-24 14:33N 32°34' E 015°18'1211.7
2014-Aug-24 13:33N 32°36' E 015°32'1211.9
2014-Aug-24 12:33N 32°37' E 015°46'1211.7
2014-Aug-24 11:33N 32°38' E 016°00'1211.9
2014-Aug-24 10:33N 32°39' E 016°14'1211.8
2014-Aug-24 09:33N 32°41' E 016°28'1211.9
2014-Aug-24 08:33N 32°42' E 016°42'2911.7
2014-Aug-24 06:07N 32°45' E 017°16'811.6
2014-Aug-24 05:25N 32°46' E 017°25'1011.6
2014-Aug-24 04:33N 32°47' E 017°37'3811.6
2014-Aug-24 01:17N 32°51' E 018°22'42311.5
2014-Aug-22 12:34N 32°08' E 026°41'1611.9
2014-Aug-22 11:10N 32°03' E 026°60'711.7
2014-Aug-22 10:33N 32°01' E 027°08'1611.8
2014-Aug-22 09:12N 31°56' E 027°26'  

Dump ship's entire track history